createdAt,value
2022-12-18T00:00:58.120Z,88.32
2022-12-18T00:06:18.512Z,88.74
2022-12-18T00:11:23.839Z,88.81
2022-12-18T00:16:29.081Z,88.52
2022-12-18T00:21:33.489Z,88.55
2022-12-18T00:26:38.341Z,88.82
2022-12-18T00:31:42.789Z,88.36
2022-12-18T00:36:48.583Z,88.42
2022-12-18T00:42:09.573Z,88.37
2022-12-18T00:47:12.281Z,88.69
2022-12-18T00:52:14.965Z,88.89
2022-12-18T00:57:17.675Z,89.04
2022-12-18T01:02:20.647Z,89.02
2022-12-18T01:07:23.683Z,88.84
2022-12-18T01:12:26.441Z,88.59
2022-12-18T01:17:29.246Z,89.60
2022-12-18T01:22:32.009Z,89.58
2022-12-18T01:27:35.099Z,89.66
2022-12-18T01:32:37.888Z,89.19
2022-12-18T01:37:40.634Z,89.57
2022-12-18T01:42:43.320Z,89.41
2022-12-18T01:47:49.793Z,89.50
2022-12-18T01:53:01.080Z,89.32
2022-12-18T01:58:04.807Z,89.46
2022-12-18T02:03:07.558Z,89.20
2022-12-18T02:08:20.416Z,89.63
2022-12-18T02:13:39.560Z,89.32
2022-12-18T02:18:48.335Z,88.67
2022-12-18T02:23:58.139Z,88.50
2022-12-18T02:29:11.371Z,88.13
2022-12-18T02:34:15.323Z,88.45
2022-12-18T02:39:18.899Z,88.49
2022-12-18T02:44:21.617Z,88.01
2022-12-18T02:49:42.202Z,88.71
2022-12-18T02:54:51.435Z,88.47
2022-12-18T03:00:19.918Z,88.98
2022-12-18T03:05:33.847Z,89.61
2022-12-18T03:10:46.553Z,89.31
2022-12-18T03:15:51.964Z,89.21
2022-12-18T03:20:58.697Z,89.30
2022-12-18T03:26:08.105Z,89.40
2022-12-18T03:31:13.977Z,89.30
2022-12-18T03:36:16.786Z,89.11
2022-12-18T03:41:19.419Z,89.20
2022-12-18T03:46:38.150Z,89.18
2022-12-18T03:51:54.378Z,88.62
2022-12-18T03:57:07.801Z,89.57
2022-12-18T04:02:11.394Z,89.97
2022-12-18T04:07:15.061Z,89.42
2022-12-18T04:12:17.758Z,89.34
2022-12-18T04:17:20.996Z,89.68
2022-12-18T04:22:23.782Z,89.66
2022-12-18T04:27:26.467Z,90.16
2022-12-18T04:32:29.166Z,90.74
2022-12-18T04:37:31.880Z,91.33
2022-12-18T04:42:34.709Z,91.43
2022-12-18T04:47:37.451Z,91.09
2022-12-18T04:52:40.204Z,91.39
2022-12-18T04:57:42.935Z,91.41
2022-12-18T05:02:46.134Z,91.28
2022-12-18T05:07:49.505Z,91.72
2022-12-18T05:13:01.204Z,91.07
2022-12-18T05:18:05.262Z,91.10
2022-12-18T05:23:08.046Z,91.56
2022-12-18T05:28:10.737Z,92.31
2022-12-18T05:33:13.546Z,92.04
2022-12-18T05:38:16.241Z,92.81
2022-12-18T05:43:21.614Z,92.75
2022-12-18T05:48:24.989Z,92.44
2022-12-18T05:53:27.721Z,92.75
2022-12-18T05:58:31.492Z,92.94
2022-12-18T06:03:34.424Z,93.03
2022-12-18T06:08:41.470Z,93.68
2022-12-18T06:13:57.672Z,93.85
2022-12-18T06:19:05.056Z,93.50
2022-12-18T06:24:08.081Z,94.34
2022-12-18T06:29:10.831Z,94.62
2022-12-18T06:34:13.582Z,94.28
2022-12-18T06:39:16.263Z,94.26
2022-12-18T06:44:19.185Z,93.77
2022-12-18T06:49:24.154Z,93.83
2022-12-18T06:54:30.522Z,94.27
2022-12-18T06:59:33.323Z,94.33
2022-12-18T07:04:36.125Z,94.73
2022-12-18T07:09:38.812Z,94.02
2022-12-18T07:14:41.521Z,94.01
2022-12-18T07:19:44.363Z,93.75
2022-12-18T07:24:47.125Z,94.27
2022-12-18T07:29:50.030Z,93.89
2022-12-18T07:34:52.773Z,94.27
2022-12-18T07:39:55.634Z,93.42
2022-12-18T07:45:02.556Z,93.74
2022-12-18T07:50:06.521Z,93.11
2022-12-18T07:55:09.669Z,92.96
2022-12-18T08:00:13.442Z,92.85
2022-12-18T08:05:16.197Z,92.69
2022-12-18T08:10:19.701Z,92.64
2022-12-18T08:15:22.712Z,92.18
2022-12-18T08:20:25.414Z,91.50
2022-12-18T08:25:28.165Z,91.15
2022-12-18T08:30:30.956Z,91.33
2022-12-18T08:35:42.473Z,90.96
2022-12-18T08:40:48.237Z,91.03
2022-12-18T08:45:51.454Z,90.86
2022-12-18T08:50:56.238Z,90.50
2022-12-18T08:55:59.052Z,89.78
2022-12-18T09:01:03.179Z,89.86
2022-12-18T09:06:07.312Z,89.41
2022-12-18T09:11:22.421Z,88.94
2022-12-18T09:16:31.699Z,88.01
2022-12-18T09:21:37.150Z,87.72
2022-12-18T09:26:40.641Z,88.13
2022-12-18T09:31:46.305Z,88.63
2022-12-18T09:36:49.422Z,88.19
2022-12-18T09:41:56.680Z,88.69
2022-12-18T09:46:59.374Z,88.60
2022-12-18T09:52:28.722Z,87.51
2022-12-18T09:57:35.576Z,86.24
2022-12-18T10:02:38.332Z,86.31
2022-12-18T10:08:00.575Z,84.74
2022-12-18T10:13:06.034Z,84.83
2022-12-18T10:18:50.135Z,84.67
2022-12-18T10:24:14.470Z,84.48
2022-12-18T10:29:17.994Z,83.84
2022-12-18T10:34:20.696Z,84.64
2022-12-18T10:39:26.624Z,83.58
2022-12-18T10:44:29.328Z,83.80
2022-12-18T10:49:36.227Z,83.67
2022-12-18T10:54:39.016Z,82.66
2022-12-18T10:59:56.518Z,82.19
2022-12-18T11:04:59.332Z,81.50
2022-12-18T11:10:02.663Z,79.24
2022-12-18T11:15:07.152Z,78.57
2022-12-18T11:20:42.685Z,74.63
2022-12-18T11:25:54.706Z,72.23
2022-12-18T11:31:20.616Z,67.00
2022-12-18T11:36:24.621Z,64.01
2022-12-18T11:41:57.493Z,62.14
2022-12-18T11:47:26.836Z,60.27
2022-12-18T11:52:39.841Z,57.17
2022-12-18T11:58:31.577Z,54.57
2022-12-18T12:03:52.458Z,51.16
2022-12-18T12:09:17.355Z,50.31
2022-12-18T12:14:33.452Z,51.30
2022-12-18T12:19:39.533Z,50.34
2022-12-18T12:24:44.938Z,49.14
2022-12-18T12:29:50.476Z,47.46
2022-12-18T12:35:17.325Z,47.08
2022-12-18T12:40:50.286Z,47.75
2022-12-18T12:45:50.222Z,47.60
2022-12-18T12:50:54.621Z,49.32
2022-12-18T12:55:58.532Z,51.35
2022-12-18T13:01:23.321Z,52.22
2022-12-18T13:07:02.611Z,54.53
2022-12-18T13:12:34.865Z,57.17
2022-12-18T13:17:38.230Z,58.86
2022-12-18T13:22:47.653Z,60.47
2022-12-18T13:28:15.780Z,61.50
2022-12-18T13:33:18.681Z,62.73
2022-12-18T13:38:31.904Z,64.49
2022-12-18T13:43:47.637Z,65.39
2022-12-18T13:49:05.521Z,66.00
2022-12-18T13:54:40.429Z,66.99
2022-12-18T13:59:43.129Z,68.11
2022-12-18T14:04:47.855Z,69.63
2022-12-18T14:10:06.457Z,70.32
2022-12-18T14:15:32.392Z,72.30
2022-12-18T14:20:36.253Z,74.29
2022-12-18T14:25:38.906Z,75.34
2022-12-18T14:30:43.808Z,76.39
2022-12-18T14:36:01.686Z,77.93
2022-12-18T14:41:07.817Z,78.54
2022-12-18T14:46:29.451Z,79.40
2022-12-18T14:51:35.424Z,79.53
2022-12-18T14:56:45.711Z,80.85
2022-12-18T15:02:02.982Z,81.68
2022-12-18T15:07:24.079Z,82.52
2022-12-18T15:12:43.745Z,82.85
2022-12-18T15:17:46.486Z,82.82
2022-12-18T15:22:49.255Z,82.80
2022-12-18T15:27:52.009Z,83.09
2022-12-18T15:33:23.938Z,83.96
2022-12-18T15:38:27.746Z,84.23
2022-12-18T15:43:37.681Z,84.29
2022-12-18T15:48:55.503Z,84.52
2022-12-18T15:54:05.895Z,84.94
2022-12-18T15:59:17.419Z,84.48
2022-12-18T16:04:22.245Z,85.11
2022-12-18T16:09:26.601Z,85.28
2022-12-18T16:14:31.344Z,85.33
2022-12-18T16:19:34.346Z,85.31
2022-12-18T16:24:37.363Z,85.49
2022-12-18T16:29:40.230Z,86.33
2022-12-18T16:34:44.708Z,86.66
2022-12-18T16:39:47.416Z,86.53
2022-12-18T16:44:50.663Z,86.41
2022-12-18T16:49:54.214Z,86.61
2022-12-18T16:54:57.373Z,86.98
2022-12-18T17:00:05.120Z,87.43
2022-12-18T17:05:08.633Z,87.45
2022-12-18T17:10:11.461Z,87.26
2022-12-18T17:15:14.263Z,87.44
2022-12-18T17:20:16.996Z,87.76
2022-12-18T17:25:22.427Z,87.26
2022-12-18T17:30:26.863Z,87.72
2022-12-18T17:35:30.590Z,87.28
2022-12-18T17:40:33.672Z,87.96
2022-12-18T17:45:40.397Z,87.49
2022-12-18T17:50:43.087Z,87.68
2022-12-18T17:55:55.646Z,88.37
2022-12-18T18:00:58.548Z,88.25
2022-12-18T18:06:02.569Z,88.91
2022-12-18T18:11:34.947Z,88.21
2022-12-18T18:16:47.537Z,88.77
2022-12-18T18:21:52.766Z,88.81
2022-12-18T18:26:56.567Z,88.26
2022-12-18T18:31:59.948Z,87.93
2022-12-18T18:37:03.096Z,87.68
2022-12-18T18:42:05.885Z,86.87
2022-12-18T18:47:09.657Z,86.73
2022-12-18T18:52:12.623Z,86.82
2022-12-18T18:57:20.961Z,86.75
2022-12-18T19:02:24.717Z,86.80
2022-12-18T19:07:30.599Z,86.39
2022-12-18T19:12:53.619Z,86.29
2022-12-18T19:17:56.333Z,85.65
2022-12-18T19:22:59.361Z,85.45
2022-12-18T19:28:02.046Z,85.25
2022-12-18T19:33:33.981Z,85.04
2022-12-18T19:38:30.341Z,84.92
2022-12-18T19:43:36.138Z,85.32
2022-12-18T19:48:39.111Z,84.91
2022-12-18T19:53:42.245Z,84.39
2022-12-18T19:58:45.855Z,84.25
2022-12-18T20:03:52.621Z,84.21
2022-12-18T20:09:01.183Z,84.46
2022-12-18T20:14:05.143Z,83.92
2022-12-18T20:19:08.953Z,84.66
2022-12-18T20:24:13.013Z,84.29
2022-12-18T20:29:15.766Z,84.65
2022-12-18T20:34:18.997Z,84.80
2022-12-18T20:39:22.277Z,84.81
2022-12-18T20:44:26.137Z,84.67
2022-12-18T20:49:29.648Z,84.41
2022-12-18T20:54:32.425Z,83.79
2022-12-18T20:59:35.170Z,83.16
2022-12-18T21:04:37.844Z,83.17
2022-12-18T21:09:40.741Z,83.18
2022-12-18T21:14:44.789Z,83.20
2022-12-18T21:19:47.478Z,82.81
2022-12-18T21:24:52.182Z,82.94
2022-12-18T21:29:54.980Z,84.03
2022-12-18T21:34:57.829Z,83.91
2022-12-18T21:40:00.530Z,83.59
2022-12-18T21:45:03.841Z,83.50
2022-12-18T21:50:07.165Z,83.16
2022-12-18T21:55:10.631Z,83.57
2022-12-18T22:00:18.589Z,83.71
2022-12-18T22:05:23.447Z,83.44
2022-12-18T22:10:26.149Z,82.70
2022-12-18T22:15:28.863Z,83.51
2022-12-18T22:20:31.846Z,83.67
2022-12-18T22:25:36.492Z,83.12
2022-12-18T22:30:42.812Z,82.50
2022-12-18T22:35:45.639Z,83.19
2022-12-18T22:40:48.853Z,83.43
2022-12-18T22:45:51.883Z,83.41
2022-12-18T22:50:58.504Z,83.48
2022-12-18T22:56:02.515Z,83.78
2022-12-18T23:01:06.233Z,83.51
2022-12-18T23:06:09.553Z,83.67
2022-12-18T23:11:13.668Z,83.51
2022-12-18T23:16:20.297Z,82.73
2022-12-18T23:21:24.304Z,81.61
2022-12-18T23:26:28.661Z,81.85
2022-12-18T23:31:37.526Z,81.84
2022-12-18T23:36:45.427Z,82.54
2022-12-18T23:41:49.547Z,83.00
2022-12-18T23:46:53.025Z,83.48
2022-12-18T23:51:56.136Z,83.44
2022-12-18T23:56:59.073Z,83.84
